sensor_id;sensor_type;location;lat;lon;timestamp;pressure;altitude;pressure_sealevel;temperature;humidity
56400;BME280;42298;53.638;9.876;2022-10-26T00:01:09;101422.97;;;15.53;66.56
56400;BME280;42298;53.638;9.876;2022-10-26T00:03:36;101421.19;;;15.40;66.73
56400;BME280;42298;53.638;9.876;2022-10-26T00:06:22;101428.47;;;15.36;67.76
56400;BME280;42298;53.638;9.876;2022-10-26T00:08:54;101418.84;;;15.25;67.83
56400;BME280;42298;53.638;9.876;2022-10-26T00:11:19;101424.41;;;15.25;68.06
56400;BME280;42298;53.638;9.876;2022-10-26T00:13:46;101423.56;;;15.24;67.96
56400;BME280;42298;53.638;9.876;2022-10-26T00:16:16;101426.16;;;15.21;68.30
56400;BME280;42298;53.638;9.876;2022-10-26T00:18:42;101419.97;;;15.07;69.00
56400;BME280;42298;53.638;9.876;2022-10-26T00:21:08;101419.97;;;15.07;68.55
56400;BME280;42298;53.638;9.876;2022-10-26T00:23:34;101430.06;;;15.03;68.90
56400;BME280;42298;53.638;9.876;2022-10-26T00:26:00;101426.31;;;15.07;68.62
56400;BME280;42298;53.638;9.876;2022-10-26T00:28:27;101409.66;;;15.07;68.60
56400;BME280;42298;53.638;9.876;2022-10-26T00:30:52;101420.44;;;15.09;68.51
56400;BME280;42298;53.638;9.876;2022-10-26T00:33:18;101421.44;;;15.13;68.54
56400;BME280;42298;53.638;9.876;2022-10-26T00:35:47;101419.00;;;15.11;67.88
56400;BME280;42298;53.638;9.876;2022-10-26T00:38:12;101421.25;;;15.09;68.07
56400;BME280;42298;53.638;9.876;2022-10-26T00:40:37;101435.47;;;15.16;68.50
56400;BME280;42298;53.638;9.876;2022-10-26T00:43:09;101426.69;;;15.23;68.40
56400;BME280;42298;53.638;9.876;2022-10-26T00:45:36;101429.78;;;15.21;68.08
56400;BME280;42298;53.638;9.876;2022-10-26T00:48:07;101430.94;;;15.29;67.80
56400;BME280;42298;53.638;9.876;2022-10-26T00:50:40;101428.66;;;15.31;67.41
56400;BME280;42298;53.638;9.876;2022-10-26T00:53:06;101427.19;;;15.25;67.67
56400;BME280;42298;53.638;9.876;2022-10-26T00:55:41;101423.91;;;15.23;67.70
56400;BME280;42298;53.638;9.876;2022-10-26T00:58:09;101412.47;;;15.16;67.64
56400;BME280;42298;53.638;9.876;2022-10-26T01:00:35;101423.41;;;15.12;67.89
56400;BME280;42298;53.638;9.876;2022-10-26T01:03:04;101422.75;;;15.15;67.14
56400;BME280;42298;53.638;9.876;2022-10-26T01:05:31;101415.06;;;15.04;66.83
56400;BME280;42298;53.638;9.876;2022-10-26T01:07:57;101415.34;;;14.94;65.78
56400;BME280;42298;53.638;9.876;2022-10-26T01:10:24;101412.38;;;14.82;67.00
56400;BME280;42298;53.638;9.876;2022-10-26T01:12:52;101410.88;;;14.76;66.81
56400;BME280;42298;53.638;9.876;2022-10-26T01:15:21;101420.38;;;14.83;66.85
56400;BME280;42298;53.638;9.876;2022-10-26T01:17:56;101414.66;;;14.80;66.99
56400;BME280;42298;53.638;9.876;2022-10-26T01:20:42;101426.09;;;14.87;66.38
56400;BME280;42298;53.638;9.876;2022-10-26T01:23:22;101413.66;;;14.76;66.98
56400;BME280;42298;53.638;9.876;2022-10-26T01:31:27;101401.38;;;14.60;67.84
56400;BME280;42298;53.638;9.876;2022-10-26T01:34:04;101403.63;;;14.58;66.96
56400;BME280;42298;53.638;9.876;2022-10-26T01:36:44;101410.97;;;14.54;66.25
56400;BME280;42298;53.638;9.876;2022-10-26T01:39:28;101407.78;;;14.38;66.08
56400;BME280;42298;53.638;9.876;2022-10-26T01:42:02;101407.59;;;14.26;66.44
56400;BME280;42298;53.638;9.876;2022-10-26T01:44:42;101397.75;;;14.20;67.30
56400;BME280;42298;53.638;9.876;2022-10-26T01:47:12;101406.88;;;14.21;66.29
56400;BME280;42298;53.638;9.876;2022-10-26T01:49:45;101411.84;;;14.10;66.50
56400;BME280;42298;53.638;9.876;2022-10-26T01:52:13;101412.50;;;14.07;67.30
56400;BME280;42298;53.638;9.876;2022-10-26T01:54:38;101412.06;;;14.14;67.73
56400;BME280;42298;53.638;9.876;2022-10-26T01:57:06;101401.47;;;14.16;67.47
56400;BME280;42298;53.638;9.876;2022-10-26T01:59:55;101397.25;;;14.18;66.48
56400;BME280;42298;53.638;9.876;2022-10-26T02:10:58;101404.00;;;14.04;65.94
56400;BME280;42298;53.638;9.876;2022-10-26T02:13:44;101402.50;;;13.98;66.15
56400;BME280;42298;53.638;9.876;2022-10-26T02:16:24;101402.44;;;13.89;65.79
56400;BME280;42298;53.638;9.876;2022-10-26T02:21:43;101403.66;;;13.75;66.98
56400;BME280;42298;53.638;9.876;2022-10-26T02:24:12;101404.28;;;13.72;67.80
56400;BME280;42298;53.638;9.876;2022-10-26T02:26:41;101393.41;;;13.75;67.68
56400;BME280;42298;53.638;9.876;2022-10-26T02:29:14;101399.09;;;13.79;66.77
56400;BME280;42298;53.638;9.876;2022-10-26T02:31:42;101400.25;;;13.78;67.07
56400;BME280;42298;53.638;9.876;2022-10-26T02:34:11;101399.28;;;13.82;67.10
56400;BME280;42298;53.638;9.876;2022-10-26T02:36:41;101398.47;;;13.82;66.79
56400;BME280;42298;53.638;9.876;2022-10-26T02:39:09;101394.72;;;13.78;66.38
56400;BME280;42298;53.638;9.876;2022-10-26T02:41:36;101391.56;;;13.71;66.16
56400;BME280;42298;53.638;9.876;2022-10-26T02:44:28;101400.69;;;13.71;65.95
56400;BME280;42298;53.638;9.876;2022-10-26T02:46:54;101400.50;;;13.68;66.57
56400;BME280;42298;53.638;9.876;2022-10-26T02:49:21;101401.81;;;13.70;66.79
56400;BME280;42298;53.638;9.876;2022-10-26T02:51:50;101403.13;;;13.73;67.15
56400;BME280;42298;53.638;9.876;2022-10-26T02:57:00;101393.81;;;13.69;67.11
56400;BME280;42298;53.638;9.876;2022-10-26T02:59:35;101394.25;;;13.62;66.66
56400;BME280;42298;53.638;9.876;2022-10-26T03:02:02;101388.34;;;13.55;66.37
56400;BME280;42298;53.638;9.876;2022-10-26T03:04:32;101405.47;;;13.57;66.59
56400;BME280;42298;53.638;9.876;2022-10-26T03:06:58;101393.31;;;13.44;65.97
56400;BME280;42298;53.638;9.876;2022-10-26T03:09:24;101390.53;;;13.44;66.88
56400;BME280;42298;53.638;9.876;2022-10-26T03:11:50;101399.22;;;13.52;67.23
56400;BME280;42298;53.638;9.876;2022-10-26T03:14:16;101392.16;;;13.45;66.82
56400;BME280;42298;53.638;9.876;2022-10-26T03:16:41;101401.19;;;13.51;67.11
56400;BME280;42298;53.638;9.876;2022-10-26T03:19:06;101391.16;;;13.41;65.48
56400;BME280;42298;53.638;9.876;2022-10-26T03:21:32;101398.94;;;13.39;66.33
56400;BME280;42298;53.638;9.876;2022-10-26T03:23:57;101397.53;;;13.42;67.13
56400;BME280;42298;53.638;9.876;2022-10-26T03:26:25;101388.19;;;13.38;65.95
56400;BME280;42298;53.638;9.876;2022-10-26T03:28:51;101389.47;;;13.32;66.93
56400;BME280;42298;53.638;9.876;2022-10-26T03:31:16;101396.81;;;13.36;66.85
56400;BME280;42298;53.638;9.876;2022-10-26T03:33:41;101389.03;;;13.38;67.11
56400;BME280;42298;53.638;9.876;2022-10-26T03:36:07;101383.13;;;13.31;66.54
56400;BME280;42298;53.638;9.876;2022-10-26T03:38:33;101385.88;;;13.31;66.66
56400;BME280;42298;53.638;9.876;2022-10-26T03:40:58;101395.81;;;13.32;67.50
56400;BME280;42298;53.638;9.876;2022-10-26T03:43:23;101387.66;;;13.27;67.80
56400;BME280;42298;53.638;9.876;2022-10-26T03:45:48;101390.63;;;13.17;66.69
56400;BME280;42298;53.638;9.876;2022-10-26T03:48:15;101384.41;;;13.12;66.69
56400;BME280;42298;53.638;9.876;2022-10-26T03:50:40;101389.94;;;13.12;67.43
56400;BME280;42298;53.638;9.876;2022-10-26T03:53:06;101385.09;;;13.17;67.07
56400;BME280;42298;53.638;9.876;2022-10-26T03:55:32;101379.19;;;13.10;67.83
56400;BME280;42298;53.638;9.876;2022-10-26T03:57:57;101386.84;;;13.13;67.37
56400;BME280;42298;53.638;9.876;2022-10-26T04:00:22;101388.69;;;13.18;66.92
56400;BME280;42298;53.638;9.876;2022-10-26T04:02:58;101387.06;;;13.17;67.72
56400;BME280;42298;53.638;9.876;2022-10-26T04:05:26;101396.66;;;13.19;67.37
56400;BME280;42298;53.638;9.876;2022-10-26T04:07:58;101384.72;;;13.10;65.75
56400;BME280;42298;53.638;9.876;2022-10-26T04:10:25;101392.50;;;13.08;66.19
56400;BME280;42298;53.638;9.876;2022-10-26T04:12:50;101390.47;;;13.00;66.07
56400;BME280;42298;53.638;9.876;2022-10-26T04:15:17;101383.81;;;13.01;66.88
56400;BME280;42298;53.638;9.876;2022-10-26T04:17:42;101376.94;;;12.99;66.62
56400;BME280;42298;53.638;9.876;2022-10-26T04:20:08;101386.16;;;13.08;66.54
56400;BME280;42298;53.638;9.876;2022-10-26T04:22:34;101377.75;;;12.99;66.77
56400;BME280;42298;53.638;9.876;2022-10-26T04:25:00;101377.25;;;12.97;67.15
56400;BME280;42298;53.638;9.876;2022-10-26T04:27:26;101391.84;;;12.98;67.28
56400;BME280;42298;53.638;9.876;2022-10-26T04:29:51;101377.97;;;12.89;68.00
56400;BME280;42298;53.638;9.876;2022-10-26T04:32:16;101374.56;;;12.92;68.09
56400;BME280;42298;53.638;9.876;2022-10-26T04:34:41;101378.47;;;12.91;67.39
56400;BME280;42298;53.638;9.876;2022-10-26T04:37:07;101382.97;;;12.87;67.07
56400;BME280;42298;53.638;9.876;2022-10-26T04:39:32;101384.63;;;12.88;68.34
56400;BME280;42298;53.638;9.876;2022-10-26T04:41:57;101380.94;;;12.93;68.41
56400;BME280;42298;53.638;9.876;2022-10-26T04:44:23;101375.59;;;12.96;69.24
56400;BME280;42298;53.638;9.876;2022-10-26T04:46:48;101368.94;;;12.97;69.35
56400;BME280;42298;53.638;9.876;2022-10-26T04:49:13;101370.28;;;13.00;69.60
56400;BME280;42298;53.638;9.876;2022-10-26T04:51:38;101369.66;;;13.03;69.70
56400;BME280;42298;53.638;9.876;2022-10-26T04:54:04;101373.97;;;13.09;69.55
56400;BME280;42298;53.638;9.876;2022-10-26T04:56:29;101374.78;;;13.09;68.93
56400;BME280;42298;53.638;9.876;2022-10-26T04:58:54;101362.06;;;13.08;69.08
56400;BME280;42298;53.638;9.876;2022-10-26T05:01:20;101366.28;;;13.06;68.57
56400;BME280;42298;53.638;9.876;2022-10-26T05:03:52;101378.25;;;13.15;68.46
56400;BME280;42298;53.638;9.876;2022-10-26T05:06:19;101375.72;;;13.05;67.96
56400;BME280;42298;53.638;9.876;2022-10-26T05:08:45;101376.50;;;13.05;68.91
56400;BME280;42298;53.638;9.876;2022-10-26T05:11:10;101374.88;;;13.04;68.43
56400;BME280;42298;53.638;9.876;2022-10-26T05:13:35;101366.97;;;12.98;68.22
56400;BME280;42298;53.638;9.876;2022-10-26T05:16:01;101372.34;;;12.94;67.80
56400;BME280;42298;53.638;9.876;2022-10-26T05:18:26;101365.44;;;12.92;67.17
56400;BME280;42298;53.638;9.876;2022-10-26T05:20:52;101363.13;;;12.85;66.34
56400;BME280;42298;53.638;9.876;2022-10-26T05:23:17;101353.31;;;12.79;66.80
56400;BME280;42298;53.638;9.876;2022-10-26T05:25:43;101379.09;;;12.88;66.50
56400;BME280;42298;53.638;9.876;2022-10-26T05:28:10;101369.91;;;12.79;67.29
56400;BME280;42298;53.638;9.876;2022-10-26T05:30:38;101368.75;;;12.80;68.01
56400;BME280;42298;53.638;9.876;2022-10-26T05:33:03;101369.59;;;12.81;68.27
56400;BME280;42298;53.638;9.876;2022-10-26T05:35:29;101355.03;;;12.75;69.33
56400;BME280;42298;53.638;9.876;2022-10-26T05:37:55;101367.22;;;12.74;69.84
56400;BME280;42298;53.638;9.876;2022-10-26T05:40:21;101363.53;;;12.79;69.52
56400;BME280;42298;53.638;9.876;2022-10-26T05:42:46;101366.91;;;12.76;69.75
56400;BME280;42298;53.638;9.876;2022-10-26T05:45:12;101366.91;;;12.76;69.97
56400;BME280;42298;53.638;9.876;2022-10-26T05:47:41;101372.84;;;12.83;70.03
56400;BME280;42298;53.638;9.876;2022-10-26T05:50:07;101383.59;;;12.84;70.11
56400;BME280;42298;53.638;9.876;2022-10-26T05:52:39;101382.78;;;12.84;70.71
56400;BME280;42298;53.638;9.876;2022-10-26T05:55:06;101372.66;;;12.79;70.14
56400;BME280;42298;53.638;9.876;2022-10-26T05:57:32;101377.16;;;12.75;70.52
56400;BME280;42298;53.638;9.876;2022-10-26T05:59:57;101377.66;;;12.77;70.32
56400;BME280;42298;53.638;9.876;2022-10-26T06:05:09;101384.63;;;12.88;70.28
56400;BME280;42298;53.638;9.876;2022-10-26T06:07:36;101380.34;;;12.82;70.14
56400;BME280;42298;53.638;9.876;2022-10-26T06:10:03;101371.00;;;12.78;69.86
56400;BME280;42298;53.638;9.876;2022-10-26T06:12:29;101379.81;;;12.80;69.71
56400;BME280;42298;53.638;9.876;2022-10-26T06:14:54;101390.47;;;12.87;69.81
56400;BME280;42298;53.638;9.876;2022-10-26T06:23:14;101385.13;;;12.77;70.67
56400;BME280;42298;53.638;9.876;2022-10-26T06:25:53;101392.50;;;12.81;70.82
56400;BME280;42298;53.638;9.876;2022-10-26T06:28:49;101390.56;;;12.82;71.20
56400;BME280;42298;53.638;9.876;2022-10-26T06:31:17;101389.34;;;12.74;70.90
56400;BME280;42298;53.638;9.876;2022-10-26T06:33:45;101394.78;;;12.79;71.03
56400;BME280;42298;53.638;9.876;2022-10-26T06:36:22;101397.94;;;12.86;70.65
56400;BME280;42298;53.638;9.876;2022-10-26T06:38:54;101404.97;;;12.92;70.33
56400;BME280;42298;53.638;9.876;2022-10-26T06:41:21;101400.16;;;12.84;70.97
56400;BME280;42298;53.638;9.876;2022-10-26T06:43:47;101386.66;;;12.83;70.99
56400;BME280;42298;53.638;9.876;2022-10-26T06:46:38;101390.16;;;12.88;71.20
56400;BME280;42298;53.638;9.876;2022-10-26T06:51:54;101408.91;;;13.05;71.44
56400;BME280;42298;53.638;9.876;2022-10-26T06:54:27;101403.56;;;13.08;71.36
56400;BME280;42298;53.638;9.876;2022-10-26T06:56:55;101406.94;;;13.05;71.23
56400;BME280;42298;53.638;9.876;2022-10-26T07:02:11;101413.06;;;13.16;71.65
56400;BME280;42298;53.638;9.876;2022-10-26T07:04:36;101411.63;;;13.18;71.68
56400;BME280;42298;53.638;9.876;2022-10-26T07:07:02;101416.56;;;13.21;71.55
56400;BME280;42298;53.638;9.876;2022-10-26T07:09:27;101415.72;;;13.21;71.75
56400;BME280;42298;53.638;9.876;2022-10-26T07:11:52;101402.91;;;13.25;71.35
56400;BME280;42298;53.638;9.876;2022-10-26T07:14:17;101418.94;;;13.36;71.76
56400;BME280;42298;53.638;9.876;2022-10-26T07:16:43;101421.59;;;13.41;71.88
56400;BME280;42298;53.638;9.876;2022-10-26T07:19:08;101423.13;;;13.48;71.46
56400;BME280;42298;53.638;9.876;2022-10-26T07:21:33;101425.63;;;13.58;71.75
56400;BME280;42298;53.638;9.876;2022-10-26T07:23:59;101414.47;;;13.63;71.40
56400;BME280;42298;53.638;9.876;2022-10-26T07:26:24;101425.16;;;13.78;72.21
56400;BME280;42298;53.638;9.876;2022-10-26T07:28:50;101417.63;;;13.92;70.99
56400;BME280;42298;53.638;9.876;2022-10-26T07:31:15;101422.22;;;13.96;70.73
56400;BME280;42298;53.638;9.876;2022-10-26T07:33:40;101424.41;;;14.08;71.70
56400;BME280;42298;53.638;9.876;2022-10-26T07:36:07;101425.16;;;14.22;70.93
56400;BME280;42298;53.638;9.876;2022-10-26T07:38:35;101431.78;;;14.43;70.72
56400;BME280;42298;53.638;9.876;2022-10-26T07:41:01;101435.09;;;14.53;70.91
56400;BME280;42298;53.638;9.876;2022-10-26T07:43:26;101422.06;;;14.54;69.87
56400;BME280;42298;53.638;9.876;2022-10-26T07:45:51;101426.78;;;14.53;69.46
56400;BME280;42298;53.638;9.876;2022-10-26T07:48:18;101427.16;;;14.60;70.77
56400;BME280;42298;53.638;9.876;2022-10-26T07:50:43;101425.13;;;14.83;69.80
56400;BME280;42298;53.638;9.876;2022-10-26T07:53:09;101423.19;;;14.92;70.04
56400;BME280;42298;53.638;9.876;2022-10-26T07:55:34;101413.41;;;15.03;69.80
56400;BME280;42298;53.638;9.876;2022-10-26T07:57:59;101427.81;;;15.22;69.56
56400;BME280;42298;53.638;9.876;2022-10-26T08:00:25;101418.84;;;15.33;69.34
56400;BME280;42298;53.638;9.876;2022-10-26T08:02:50;101432.28;;;15.40;69.17
56400;BME280;42298;53.638;9.876;2022-10-26T08:05:16;101418.56;;;15.52;69.46
56400;BME280;42298;53.638;9.876;2022-10-26T08:07:42;101427.03;;;15.64;69.26
56400;BME280;42298;53.638;9.876;2022-10-26T08:10:10;101432.94;;;15.71;68.75
56400;BME280;42298;53.638;9.876;2022-10-26T08:12:36;101424.78;;;15.66;68.54
56400;BME280;42298;53.638;9.876;2022-10-26T08:15:02;101429.16;;;15.67;68.69
56400;BME280;42298;53.638;9.876;2022-10-26T08:17:28;101434.56;;;15.89;69.23
56400;BME280;42298;53.638;9.876;2022-10-26T08:19:53;101426.25;;;15.89;68.26
56400;BME280;42298;53.638;9.876;2022-10-26T08:22:18;101429.63;;;16.12;69.03
56400;BME280;42298;53.638;9.876;2022-10-26T08:24:44;101436.28;;;16.28;68.49
56400;BME280;42298;53.638;9.876;2022-10-26T08:27:12;101432.16;;;16.42;67.23
56400;BME280;42298;53.638;9.876;2022-10-26T08:29:38;101451.72;;;16.71;67.80
56400;BME280;42298;53.638;9.876;2022-10-26T08:32:04;101460.56;;;17.02;66.94
56400;BME280;42298;53.638;9.876;2022-10-26T08:34:29;101435.03;;;17.30;66.10
56400;BME280;42298;53.638;9.876;2022-10-26T08:36:54;101443.22;;;17.55;65.52
56400;BME280;42298;53.638;9.876;2022-10-26T08:39:19;101438.69;;;17.51;64.92
56400;BME280;42298;53.638;9.876;2022-10-26T08:41:46;101444.22;;;17.71;64.44
56400;BME280;42298;53.638;9.876;2022-10-26T08:44:25;101428.34;;;17.72;63.41
56400;BME280;42298;53.638;9.876;2022-10-26T08:46:58;101428.59;;;17.79;64.15
56400;BME280;42298;53.638;9.876;2022-10-26T08:49:34;101416.09;;;17.85;63.29
56400;BME280;42298;53.638;9.876;2022-10-26T08:52:03;101418.00;;;17.93;63.08
56400;BME280;42298;53.638;9.876;2022-10-26T08:54:43;101419.59;;;18.26;62.95
56400;BME280;42298;53.638;9.876;2022-10-26T08:57:19;101428.84;;;18.39;62.56
56400;BME280;42298;53.638;9.876;2022-10-26T08:59:55;101421.31;;;18.63;61.75
56400;BME280;42298;53.638;9.876;2022-10-26T09:02:21;101413.91;;;18.79;61.59
56400;BME280;42298;53.638;9.876;2022-10-26T09:04:48;101404.22;;;18.77;60.46
56400;BME280;42298;53.638;9.876;2022-10-26T09:07:21;101404.47;;;18.60;60.73
56400;BME280;42298;53.638;9.876;2022-10-26T09:10:19;101406.09;;;18.85;60.94
56400;BME280;42298;53.638;9.876;2022-10-26T09:13:04;101411.09;;;18.91;60.11
56400;BME280;42298;53.638;9.876;2022-10-26T09:16:01;101399.34;;;18.98;59.86
56400;BME280;42298;53.638;9.876;2022-10-26T09:24:30;101391.06;;;19.38;58.34
56400;BME280;42298;53.638;9.876;2022-10-26T09:29:41;101393.16;;;19.68;58.04
56400;BME280;42298;53.638;9.876;2022-10-26T09:32:16;101406.59;;;19.90;57.35
56400;BME280;42298;53.638;9.876;2022-10-26T09:34:50;101405.66;;;19.86;56.75
56400;BME280;42298;53.638;9.876;2022-10-26T09:37:20;101404.34;;;19.96;56.44
56400;BME280;42298;53.638;9.876;2022-10-26T09:39:54;101405.59;;;19.98;56.11
56400;BME280;42298;53.638;9.876;2022-10-26T09:42:27;101406.06;;;20.00;56.58
56400;BME280;42298;53.638;9.876;2022-10-26T09:45:02;101404.91;;;20.01;56.86
56400;BME280;42298;53.638;9.876;2022-10-26T09:47:33;101409.38;;;19.90;55.89
56400;BME280;42298;53.638;9.876;2022-10-26T09:50:12;101415.78;;;20.18;55.99
56400;BME280;42298;53.638;9.876;2022-10-26T09:52:39;101403.72;;;20.14;55.72
56400;BME280;42298;53.638;9.876;2022-10-26T09:55:05;101416.06;;;20.01;55.90
56400;BME280;42298;53.638;9.876;2022-10-26T09:57:30;101428.19;;;20.33;55.62
56400;BME280;42298;53.638;9.876;2022-10-26T09:59:56;101406.94;;;20.16;54.85
56400;BME280;42298;53.638;9.876;2022-10-26T10:02:32;101411.69;;;20.43;55.46
56400;BME280;42298;53.638;9.876;2022-10-26T10:04:58;101424.97;;;20.62;55.51
56400;BME280;42298;53.638;9.876;2022-10-26T10:07:23;101402.13;;;20.44;54.50
56400;BME280;42298;53.638;9.876;2022-10-26T10:12:32;101410.22;;;20.49;54.77
56400;BME280;42298;53.638;9.876;2022-10-26T10:14:58;101413.13;;;20.37;54.90
56400;BME280;42298;53.638;9.876;2022-10-26T10:17:24;101416.56;;;20.62;53.94
56400;BME280;42298;53.638;9.876;2022-10-26T10:19:50;101412.59;;;20.47;54.37
56400;BME280;42298;53.638;9.876;2022-10-26T10:24:54;101404.53;;;20.30;54.50
56400;BME280;42298;53.638;9.876;2022-10-26T10:27:20;101409.38;;;20.18;54.83
56400;BME280;42298;53.638;9.876;2022-10-26T10:29:49;101423.13;;;20.23;55.16
56400;BME280;42298;53.638;9.876;2022-10-26T10:32:19;101415.41;;;20.47;54.79
56400;BME280;42298;53.638;9.876;2022-10-26T10:34:45;101423.16;;;20.38;54.15
56400;BME280;42298;53.638;9.876;2022-10-26T10:40:03;101419.53;;;20.69;54.32
56400;BME280;42298;53.638;9.876;2022-10-26T10:42:36;101435.50;;;20.68;54.43
56400;BME280;42298;53.638;9.876;2022-10-26T10:45:04;101415.53;;;20.23;54.67
56400;BME280;42298;53.638;9.876;2022-10-26T10:47:34;101426.34;;;19.97;55.53
56400;BME280;42298;53.638;9.876;2022-10-26T10:50:22;101426.19;;;20.06;55.98
56400;BME280;42298;53.638;9.876;2022-10-26T10:52:48;101406.25;;;20.07;55.96
56400;BME280;42298;53.638;9.876;2022-10-26T10:55:32;101415.09;;;20.21;55.46
56400;BME280;42298;53.638;9.876;2022-10-26T10:58:26;101406.44;;;20.26;56.08
56400;BME280;42298;53.638;9.876;2022-10-26T11:00:55;101406.81;;;20.40;56.27
56400;BME280;42298;53.638;9.876;2022-10-26T11:03:46;101402.03;;;20.41;55.74
56400;BME280;42298;53.638;9.876;2022-10-26T11:06:17;101405.47;;;20.50;55.36
56400;BME280;42298;53.638;9.876;2022-10-26T11:08:58;101403.84;;;20.64;55.38
56400;BME280;42298;53.638;9.876;2022-10-26T11:11:59;101414.66;;;20.82;55.12
56400;BME280;42298;53.638;9.876;2022-10-26T11:14:31;101407.31;;;20.93;55.77
56400;BME280;42298;53.638;9.876;2022-10-26T11:17:07;101420.88;;;21.22;54.56
56400;BME280;42298;53.638;9.876;2022-10-26T11:19:52;101415.25;;;21.37;53.98
56400;BME280;42298;53.638;9.876;2022-10-26T11:22:23;101407.09;;;20.98;54.70
56400;BME280;42298;53.638;9.876;2022-10-26T11:24:58;101397.97;;;20.69;54.94
56400;BME280;42298;53.638;9.876;2022-10-26T11:27:35;101402.66;;;20.65;55.19
56400;BME280;42298;53.638;9.876;2022-10-26T11:30:24;101407.78;;;20.79;55.39
56400;BME280;42298;53.638;9.876;2022-10-26T11:32:53;101399.69;;;20.74;55.28
56400;BME280;42298;53.638;9.876;2022-10-26T11:35:27;101407.16;;;20.86;55.38
56400;BME280;42298;53.638;9.876;2022-10-26T11:41:19;101402.91;;;20.76;55.70
56400;BME280;42298;53.638;9.876;2022-10-26T11:43:48;101403.84;;;20.64;55.94
56400;BME280;42298;53.638;9.876;2022-10-26T11:46:20;101412.03;;;20.89;56.28
56400;BME280;42298;53.638;9.876;2022-10-26T11:49:12;101412.94;;;21.24;55.29
56400;BME280;42298;53.638;9.876;2022-10-26T11:51:47;101407.47;;;21.31;54.78
56400;BME280;42298;53.638;9.876;2022-10-26T11:55:17;101414.53;;;21.25;54.71
56400;BME280;42298;53.638;9.876;2022-10-26T11:57:25;101418.34;;;21.17;55.26
56400;BME280;42298;53.638;9.876;2022-10-26T12:00:00;101412.47;;;21.22;54.56
56400;BME280;42298;53.638;9.876;2022-10-26T12:02:26;101400.84;;;21.04;55.27
56400;BME280;42298;53.638;9.876;2022-10-26T12:04:56;101418.81;;;21.19;55.32
56400;BME280;42298;53.638;9.876;2022-10-26T12:07:37;101414.69;;;21.32;54.66
56400;BME280;42298;53.638;9.876;2022-10-26T12:10:06;101422.84;;;21.56;55.28
56400;BME280;42298;53.638;9.876;2022-10-26T12:12:43;101420.03;;;21.56;54.29
56400;BME280;42298;53.638;9.876;2022-10-26T12:23:15;101417.72;;;21.77;54.61
56400;BME280;42298;53.638;9.876;2022-10-26T12:25:40;101419.72;;;21.76;54.01
56400;BME280;42298;53.638;9.876;2022-10-26T12:33:57;101434.75;;;21.34;55.21
56400;BME280;42298;53.638;9.876;2022-10-26T12:39:33;101423.03;;;21.28;55.43
56400;BME280;42298;53.638;9.876;2022-10-26T12:53:24;101428.22;;;21.45;55.31
56400;BME280;42298;53.638;9.876;2022-10-26T13:06:29;101435.84;;;21.64;55.86
56400;BME280;42298;53.638;9.876;2022-10-26T13:09:07;101430.75;;;21.69;55.42
56400;BME280;42298;53.638;9.876;2022-10-26T13:11:36;101415.53;;;21.51;54.75
56400;BME280;42298;53.638;9.876;2022-10-26T13:14:17;101432.50;;;21.58;55.28
56400;BME280;42298;53.638;9.876;2022-10-26T13:16:47;101429.13;;;21.68;55.31
56400;BME280;42298;53.638;9.876;2022-10-26T13:22:00;101425.97;;;21.70;55.08
56400;BME280;42298;53.638;9.876;2022-10-26T13:24:29;101417.34;;;21.78;54.76
56400;BME280;42298;53.638;9.876;2022-10-26T13:29:30;101423.97;;;21.70;55.00
56400;BME280;42298;53.638;9.876;2022-10-26T13:31:56;101422.50;;;21.76;54.90
56400;BME280;42298;53.638;9.876;2022-10-26T13:34:27;101419.56;;;21.88;55.50
56400;BME280;42298;53.638;9.876;2022-10-26T13:39:43;101417.59;;;21.89;55.36
56400;BME280;42298;53.638;9.876;2022-10-26T13:42:19;101413.16;;;21.88;55.50
56400;BME280;42298;53.638;9.876;2022-10-26T13:45:36;101411.31;;;21.76;55.74
56400;BME280;42298;53.638;9.876;2022-10-26T13:48:10;101411.22;;;21.73;55.96
56400;BME280;42298;53.638;9.876;2022-10-26T13:50:55;101407.50;;;21.69;56.18
56400;BME280;42298;53.638;9.876;2022-10-26T13:53:25;101400.19;;;21.64;56.41
56400;BME280;42298;53.638;9.876;2022-10-26T13:55:59;101408.91;;;21.59;56.68
56400;BME280;42298;53.638;9.876;2022-10-26T14:03:39;101413.84;;;21.47;57.07
56400;BME280;42298;53.638;9.876;2022-10-26T14:06:30;101419.53;;;21.50;56.57
56400;BME280;42298;53.638;9.876;2022-10-26T14:09:00;101417.91;;;21.49;56.61
56400;BME280;42298;53.638;9.876;2022-10-26T14:11:33;101418.09;;;21.41;56.93
56400;BME280;42298;53.638;9.876;2022-10-26T14:14:00;101431.38;;;21.44;57.05
56400;BME280;42298;53.638;9.876;2022-10-26T14:16:29;101411.53;;;21.33;57.41
56400;BME280;42298;53.638;9.876;2022-10-26T14:18:56;101440.38;;;21.34;57.40
56400;BME280;42298;53.638;9.876;2022-10-26T14:21:24;101422.09;;;21.40;57.32
56400;BME280;42298;53.638;9.876;2022-10-26T14:23:55;101414.50;;;21.40;57.21
56400;BME280;42298;53.638;9.876;2022-10-26T14:28:50;101435.63;;;21.53;57.56
56400;BME280;42298;53.638;9.876;2022-10-26T14:31:27;101429.03;;;21.46;57.45
56400;BME280;42298;53.638;9.876;2022-10-26T14:33:55;101435.84;;;21.45;57.25
56400;BME280;42298;53.638;9.876;2022-10-26T14:36:53;101442.78;;;21.51;57.30
56400;BME280;42298;53.638;9.876;2022-10-26T14:39:28;101439.31;;;21.57;57.59
56400;BME280;42298;53.638;9.876;2022-10-26T14:41:57;101436.44;;;21.54;57.25
56400;BME280;42298;53.638;9.876;2022-10-26T14:44:24;101437.91;;;21.48;57.11
56400;BME280;42298;53.638;9.876;2022-10-26T14:46:50;101436.19;;;21.43;57.01
56400;BME280;42298;53.638;9.876;2022-10-26T14:49:24;101446.81;;;21.53;57.12
56400;BME280;42298;53.638;9.876;2022-10-26T14:52:04;101445.75;;;21.42;56.87
56400;BME280;42298;53.638;9.876;2022-10-26T14:54:29;101450.94;;;21.40;57.14